Time;durP1;ratioP1;P1;durP2;ratioP2;P2;SDS_P1;SDS_P2;PMS_P1;PMS_P2;Temp;Humidity;BMP_temperature;BMP_pressure;BME280_temperature;BME280_humidity;BME280_pressure;Samples;Min_cycle;Max_cycle;Signal;HPM_P1;HPM_P2
2021/03/23 00:00:35;;;;;;;5.90;3.57;;;;;;;2.43;85.15;100064.88;5033648;28;20017;-75
2021/03/23 00:03:10;;;;;;;2.43;1.50;;;;;;;2.42;85.86;100065.66;5035885;28;20029;-76
2021/03/23 00:05:37;;;;;;;2.23;1.70;;;;;;;2.36;86.24;100069.47;5035054;28;20506;-76
2021/03/23 00:08:08;;;;;;;3.63;2.13;;;;;;;2.30;85.82;100067.41;5036315;28;20056;-78
2021/03/23 00:10:33;;;;;;;2.43;1.90;;;;;;;2.18;85.84;100076.81;5032883;28;20025;-77
2021/03/23 00:12:59;;;;;;;2.70;1.80;;;;;;;2.21;85.53;100087.22;5033583;28;20502;-75
2021/03/23 00:15:25;;;;;;;2.83;2.10;;;;;;;2.23;86.59;100071.25;5038810;28;20029;-77
2021/03/23 00:17:51;;;;;;;3.43;2.30;;;;;;;2.29;86.59;100073.28;5053327;28;20112;-74
2021/03/23 00:20:23;;;;;;;2.30;1.87;;;;;;;2.32;86.07;100075.16;5053011;28;20099;-75
2021/03/23 00:22:49;;;;;;;2.53;1.83;;;;;;;2.24;85.89;100072.13;5051794;28;20037;-76
2021/03/23 00:25:15;;;;;;;2.87;1.90;;;;;;;1.85;86.45;99995.84;5053031;28;20088;-80
2021/03/23 00:27:40;;;;;;;3.13;2.03;;;;;;;2.20;87.08;100067.63;5051481;28;20116;-77
2021/03/23 00:30:09;;;;;;;3.50;2.00;;;;;;;2.20;87.36;100067.63;5052589;28;20376;-75
2021/03/23 00:32:35;;;;;;;2.87;1.93;;;;;;;2.22;87.29;100063.53;5049996;28;20037;-75
2021/03/23 00:35:00;;;;;;;3.57;2.40;;;;;;;2.13;87.10;100055.28;5052847;28;20375;-76
2021/03/23 00:37:26;;;;;;;4.73;2.60;;;;;;;2.12;87.72;100071.34;5053170;28;20397;-74
2021/03/23 00:39:51;;;;;;;4.03;2.40;;;;;;;2.13;87.09;100094.38;5051710;28;20029;-75
2021/03/23 00:42:17;;;;;;;3.90;2.47;;;;;;;2.20;87.78;100103.28;5051391;28;20450;-76
2021/03/23 00:44:45;;;;;;;3.87;2.47;;;;;;;2.23;87.87;100103.47;5051867;28;20055;-76
2021/03/23 00:47:10;;;;;;;14.90;13.43;;;;;;;2.20;88.31;100104.16;5050881;28;20029;-75
2021/03/23 00:49:36;;;;;;;8.00;6.83;;;;;;;2.10;88.13;100087.38;5053073;28;20554;-75
2021/03/23 00:52:02;;;;;;;4.87;3.53;;;;;;;2.24;88.26;100095.94;5052729;28;20087;-77
2021/03/23 00:54:27;;;;;;;6.30;2.80;;;;;;;1.82;87.81;100030.38;5052794;28;20402;-77
2021/03/23 00:56:53;;;;;;;4.90;2.87;;;;;;;2.22;87.38;100120.41;5052435;28;20025;-77
2021/03/23 00:59:18;;;;;;;5.10;2.70;;;;;;;2.04;87.15;100081.03;5051266;28;20036;-79
2021/03/23 01:01:44;;;;;;;3.97;2.70;;;;;;;2.28;86.82;100111.41;5050627;28;20056;-76
2021/03/23 01:04:09;;;;;;;3.07;2.10;;;;;;;2.20;85.92;100109.25;5052153;28;20149;-75
2021/03/23 01:06:35;;;;;;;3.10;2.50;;;;;;;2.19;85.97;100104.94;5051321;28;20055;-73
2021/03/23 01:09:00;;;;;;;3.93;2.60;;;;;;;2.23;86.71;100113.66;5050573;28;20075;-75
2021/03/23 01:11:26;;;;;;;4.47;2.80;;;;;;;2.28;86.51;100108.84;5034069;28;20041;-77
2021/03/23 01:13:51;;;;;;;3.97;2.67;;;;;;;2.26;86.44;100104.53;5052995;28;20032;-76
2021/03/23 01:16:17;;;;;;;3.30;2.40;;;;;;;1.95;86.07;100043.13;5052532;28;20453;-78
2021/03/23 01:18:42;;;;;;;4.73;2.80;;;;;;;2.27;86.72;100087.63;5051448;28;20494;-78
2021/03/23 01:21:08;;;;;;;3.80;2.63;;;;;;;2.13;87.07;100066.38;5052878;28;20064;-77
2021/03/23 01:23:33;;;;;;;11.77;6.73;;;;;;;2.20;87.81;100091.41;5051276;28;20029;-78
2021/03/23 01:26:00;;;;;;;4.87;3.10;;;;;;;2.18;87.68;100087.00;5051288;28;20032;-80
2021/03/23 01:28:25;;;;;;;4.17;3.10;;;;;;;1.84;87.59;100005.94;5052269;28;20048;-77
2021/03/23 01:30:51;;;;;;;29.33;13.10;;;;;;;2.42;87.39;100091.13;5050695;28;20406;-78
2021/03/23 01:33:16;;;;;;;5.80;3.60;;;;;;;2.07;86.75;100032.88;5051918;28;20037;-79
2021/03/23 01:35:42;;;;;;;16.23;14.63;;;;;;;2.33;86.90;100065.06;5052273;28;20025;-77
2021/03/23 01:38:07;;;;;;;4.50;3.40;;;;;;;2.42;86.73;100082.59;5051571;28;20033;-78
2021/03/23 01:40:34;;;;;;;4.80;3.23;;;;;;;2.43;87.26;100085.25;5068424;28;20024;-77
2021/03/23 01:43:03;;;;;;;4.70;3.17;;;;;;;2.46;87.03;100092.19;5071847;28;20032;-79
2021/03/23 01:45:29;;;;;;;4.55;3.20;;;;;;;2.48;87.32;100088.09;5066874;28;20036;-77
2021/03/23 01:47:56;;;;;;;4.33;2.73;;;;;;;2.44;86.78;100091.22;5052185;28;20025;-76
2021/03/23 01:50:23;;;;;;;4.40;2.73;;;;;;;2.31;87.20;100091.25;5052181;28;20056;-75
2021/03/23 01:52:57;;;;;;;3.93;2.60;;;;;;;2.37;87.11;100092.50;5051864;28;20017;-74
2021/03/23 01:55:23;;;;;;;4.57;2.70;;;;;;;2.34;87.36;100087.19;5051885;28;20025;-74
2021/03/23 01:57:50;;;;;;;4.40;2.70;;;;;;;2.32;87.34;100093.88;5049280;28;20128;-76
2021/03/23 02:00:16;;;;;;;4.20;2.70;;;;;;;2.27;87.41;100092.72;5048644;28;20040;-76
2021/03/23 02:02:42;;;;;;;5.10;3.03;;;;;;;2.21;87.48;100070.25;5049134;28;20098;-76
2021/03/23 02:05:15;;;;;;;4.60;2.90;;;;;;;2.27;87.51;100090.16;5049392;28;20029;-76
2021/03/23 02:07:41;;;;;;;4.53;2.87;;;;;;;2.31;87.50;100084.47;5016080;28;20570;-76
2021/03/23 02:10:07;;;;;;;5.13;3.00;;;;;;;2.41;87.33;100103.78;5049237;28;20120;-76
2021/03/23 02:12:32;;;;;;;5.63;3.00;;;;;;;2.53;86.59;100104.56;5049256;28;20038;-79
2021/03/23 02:14:58;;;;;;;5.03;3.33;;;;;;;2.66;86.71;100110.41;5049439;28;20087;-75
2021/03/23 02:17:33;;;;;;;5.77;3.10;;;;;;;2.82;85.88;100109.72;5048980;28;20083;-75
2021/03/23 02:20:21;;;;;;;5.33;3.27;;;;;;;2.93;84.93;100103.59;5044648;28;20029;-75
2021/03/23 02:22:49;;;;;;;4.90;3.33;;;;;;;2.85;84.69;100090.34;5048357;28;20029;-74
2021/03/23 02:25:20;;;;;;;4.60;3.00;;;;;;;2.98;84.94;100108.97;5032000;28;20029;-78
2021/03/23 02:27:46;;;;;;;4.85;3.13;;;;;;;2.99;84.69;100106.53;5048840;28;20033;-75
2021/03/23 02:30:20;;;;;;;4.43;2.87;;;;;;;3.06;84.83;100105.22;5051006;28;20443;-77
2021/03/23 02:32:45;;;;;;;4.20;3.03;;;;;;;3.03;84.50;100099.97;5050963;28;20041;-77
2021/03/23 02:35:11;;;;;;;9.48;5.93;;;;;;;2.99;84.73;100106.53;5051475;28;20481;-75
2021/03/23 02:37:38;;;;;;;5.75;3.95;;;;;;;2.89;84.48;100097.44;5051051;28;20505;-74
2021/03/23 02:40:05;;;;;;;4.93;2.70;;;;;;;2.82;84.78;100090.19;5048385;28;20091;-75
2021/03/23 02:42:31;;;;;;;5.10;2.85;;;;;;;2.80;85.15;100096.84;5048946;28;20029;-76
2021/03/23 02:44:57;;;;;;;4.50;3.03;;;;;;;2.80;85.11;100095.97;5051094;28;20028;-74
2021/03/23 02:47:22;;;;;;;4.17;3.00;;;;;;;2.68;84.86;100089.34;5049885;28;20087;-77
2021/03/23 02:49:48;;;;;;;5.50;4.00;;;;;;;2.81;85.14;100101.16;5051121;28;20104;-75
2021/03/23 02:52:13;;;;;;;4.53;3.00;;;;;;;2.83;84.99;100107.25;5051643;28;20079;-74
2021/03/23 02:54:40;;;;;;;4.40;2.77;;;;;;;2.73;85.02;100108.34;5053537;28;20025;-79
2021/03/23 02:57:07;;;;;;;3.83;2.70;;;;;;;2.73;85.33;100107.47;5055108;28;20029;-80
2021/03/23 02:59:33;;;;;;;4.20;2.70;;;;;;;2.26;86.01;100035.78;5054865;28;20029;-80
2021/03/23 03:01:59;;;;;;;4.27;2.60;;;;;;;2.59;85.94;100109.13;5055127;28;20037;-82
2021/03/23 03:04:24;;;;;;;6.83;3.97;;;;;;;2.52;84.88;100102.78;5053609;28;20108;-82
2021/03/23 03:06:49;;;;;;;3.63;2.77;;;;;;;2.43;85.15;100100.53;5052224;28;20044;-82
2021/03/23 03:09:15;;;;;;;11.53;8.13;;;;;;;2.42;85.36;100116.59;5052953;28;20037;-81
2021/03/23 03:11:40;;;;;;;7.37;3.50;;;;;;;2.46;85.64;100122.78;5035989;28;20040;-82
2021/03/23 03:14:06;;;;;;;5.37;3.70;;;;;;;2.35;84.96;100109.34;5035816;28;20087;-81
2021/03/23 03:16:32;;;;;;;6.13;3.97;;;;;;;2.46;85.23;100127.88;5036166;28;20037;-81
2021/03/23 03:18:57;;;;;;;4.50;3.10;;;;;;;2.00;85.33;100044.31;5035885;28;20035;-86
2021/03/23 03:21:23;;;;;;;4.40;2.70;;;;;;;2.51;84.68;100128.19;5035438;28;20044;-82
2021/03/23 03:23:49;;;;;;;3.40;2.57;;;;;;;2.54;84.66;100143.63;5035718;28;20037;-81
2021/03/23 03:26:14;;;;;;;4.43;3.10;;;;;;;2.59;85.41;100143.16;5035394;28;20087;-81
2021/03/23 03:28:40;;;;;;;3.93;2.87;;;;;;;2.57;85.36;100134.53;5034778;28;20052;-81
2021/03/23 03:31:06;;;;;;;4.83;3.47;;;;;;;2.64;84.59;100137.47;5035418;28;20070;-81
2021/03/23 03:33:32;;;;;;;5.37;3.63;;;;;;;2.40;84.94;100095.22;5035592;28;20049;-82
2021/03/23 03:35:58;;;;;;;5.23;3.20;;;;;;;2.73;85.03;100148.25;5035115;28;20500;-82
2021/03/23 03:38:26;;;;;;;4.63;3.28;;;;;;;2.80;84.87;100162.25;5047711;28;20472;-80
2021/03/23 03:40:55;;;;;;;5.97;3.37;;;;;;;2.92;84.42;100171.56;5053509;28;20080;-82
2021/03/23 03:43:24;;;;;;;5.20;2.83;;;;;;;2.92;84.45;100157.94;5054556;28;20489;-82
2021/03/23 03:45:49;;;;;;;5.28;3.00;;;;;;;3.05;83.43;100173.22;5053212;28;20033;-82
2021/03/23 03:48:15;;;;;;;5.43;3.40;;;;;;;2.84;83.42;100133.63;5052937;28;20144;-82
2021/03/23 03:50:41;;;;;;;5.50;3.50;;;;;;;3.12;83.15;100173.59;5052678;28;20025;-81
2021/03/23 03:53:08;;;;;;;5.45;3.40;;;;;;;3.19;83.33;100185.91;5054262;28;20025;-82
2021/03/23 03:55:36;;;;;;;5.28;3.33;;;;;;;3.13;83.62;100185.53;5053255;28;20178;-81
2021/03/23 03:58:03;;;;;;;6.32;4.18;;;;;;;2.91;83.38;100194.41;5052939;28;20074;-81
2021/03/23 04:00:31;;;;;;;8.80;5.18;;;;;;;2.57;83.95;100164.25;5052861;28;20378;-81
2021/03/23 04:03:01;;;;;;;8.27;5.60;;;;;;;2.70;84.20;100188.84;5052496;28;20067;-82
2021/03/23 04:05:41;;;;;;;7.10;5.03;;;;;;;2.87;83.66;100197.56;5052800;28;20681;-82
2021/03/23 04:08:09;;;;;;;7.57;4.50;;;;;;;2.92;84.38;100198.72;5052868;28;20028;-82
2021/03/23 04:10:35;;;;;;;7.68;5.00;;;;;;;2.79;84.70;100198.72;5052865;28;20032;-81
2021/03/23 04:13:01;;;;;;;7.55;4.40;;;;;;;2.81;84.97;100195.50;5052735;28;20024;-81
2021/03/23 04:15:39;;;;;;;6.30;4.35;;;;;;;2.60;84.67;100192.44;5045672;28;20576;-83
2021/03/23 04:18:05;;;;;;;4.82;3.47;;;;;;;2.74;84.73;100198.44;5052268;28;20059;-81
2021/03/23 04:20:32;;;;;;;6.77;4.37;;;;;;;2.34;84.03;100130.50;5050521;28;20029;-81
2021/03/23 04:22:58;;;;;;;6.75;4.40;;;;;;;2.94;84.43;100209.03;5033830;28;20037;-81
2021/03/23 04:25:28;;;;;;;8.05;4.95;;;;;;;2.86;84.22;100181.38;5032641;28;20035;-81
2021/03/23 04:27:53;;;;;;;7.43;4.47;;;;;;;3.11;83.89;100205.84;5032187;28;20476;-81
2021/03/23 04:30:20;;;;;;;8.15;5.35;;;;;;;3.19;83.05;100208.88;5031914;28;20046;-81
2021/03/23 04:32:46;;;;;;;6.67;4.80;;;;;;;3.19;82.61;100213.97;5032505;28;20029;-81
2021/03/23 04:35:25;;;;;;;6.25;4.65;;;;;;;3.28;82.13;100222.22;5033855;28;20039;-81
2021/03/23 04:37:50;;;;;;;7.55;5.22;;;;;;;3.28;82.46;100224.78;5052173;28;20025;-81
2021/03/23 04:40:16;;;;;;;5.90;4.45;;;;;;;3.16;81.78;100189.16;5052296;28;20111;-81
2021/03/23 04:42:41;;;;;;;6.30;4.47;;;;;;;3.28;82.43;100206.00;5052003;28;20021;-81
2021/03/23 04:45:08;;;;;;;6.82;4.55;;;;;;;3.29;82.50;100195.94;5052005;28;20501;-81
2021/03/23 04:47:33;;;;;;;13.68;6.72;;;;;;;3.41;81.97;100218.75;5051847;28;20501;-81
2021/03/23 04:49:59;;;;;;;8.63;5.00;;;;;;;3.39;82.73;100220.34;5052101;28;20025;-80
2021/03/23 04:52:24;;;;;;;7.22;4.22;;;;;;;3.02;82.52;100173.00;5053578;28;20040;-81
2021/03/23 04:54:51;;;;;;;6.20;4.10;;;;;;;3.19;82.87;100221.63;5051936;28;20086;-81
2021/03/23 04:57:16;;;;;;;6.10;4.03;;;;;;;3.17;83.16;100211.34;5051799;28;20052;-83
2021/03/23 04:59:42;;;;;;;5.88;4.00;;;;;;;3.11;82.66;100225.41;5051868;28;20075;-81
2021/03/23 05:02:07;;;;;;;7.60;3.60;;;;;;;2.79;83.39;100214.03;5051636;28;20476;-81
2021/03/23 05:04:33;;;;;;;9.33;7.17;;;;;;;2.72;83.56;100203.44;5050014;28;20461;-81
2021/03/23 05:06:59;;;;;;;15.90;10.70;;;;;;;2.85;83.90;100224.63;5043128;28;20616;-76
2021/03/23 05:09:25;;;;;;;8.57;6.57;;;;;;;2.78;84.91;100215.72;5050499;28;20041;-79
2021/03/23 05:11:52;;;;;;;11.30;7.27;;;;;;;2.88;84.89;100223.16;5033433;28;20084;-77
2021/03/23 05:14:17;;;;;;;15.67;12.17;;;;;;;2.91;83.88;100223.31;5050485;28;20045;-77
2021/03/23 05:16:43;;;;;;;12.93;10.07;;;;;;;2.80;84.47;100201.38;4996249;28;20094;-77
2021/03/23 05:19:08;;;;;;;13.10;9.80;;;;;;;3.01;84.81;100231.56;4991854;28;20542;-77
2021/03/23 05:21:34;;;;;;;13.75;9.77;;;;;;;2.89;84.67;100199.44;4997357;28;20157;-76
2021/03/23 05:24:01;;;;;;;13.63;10.10;;;;;;;2.69;83.85;100167.56;4999574;28;20041;-76
2021/03/23 05:26:27;;;;;;;10.48;7.47;;;;;;;2.84;83.58;100235.59;4999469;28;20046;-80
2021/03/23 05:28:53;;;;;;;13.60;9.60;;;;;;;2.74;84.90;100224.81;5000057;28;20081;-76
2021/03/23 05:31:19;;;;;;;15.23;10.13;;;;;;;2.48;85.29;100194.22;4984590;28;20099;-79
2021/03/23 05:33:45;;;;;;;26.07;16.67;;;;;;;2.82;86.04;100227.00;5004788;28;20112;-78
2021/03/23 05:36:11;;;;;;;14.43;8.67;;;;;;;2.55;85.57;100168.34;5025089;28;20515;-76
2021/03/23 05:38:37;;;;;;;14.50;7.90;;;;;;;3.00;84.06;100230.69;5029738;28;20483;-77
2021/03/23 05:41:04;;;;;;;15.17;9.10;;;;;;;3.12;83.95;100245.88;5029589;28;20033;-77
2021/03/23 05:43:52;;;;;;;14.50;8.50;;;;;;;3.16;83.83;100229.13;5003820;28;20397;-77
2021/03/23 05:46:28;;;;;;;15.05;9.85;;;;;;;3.25;83.35;100237.31;4990282;28;20480;-76
2021/03/23 05:49:00;;;;;;;15.05;11.32;;;;;;;3.22;83.64;100245.69;5031404;28;20499;-76
2021/03/23 05:51:46;;;;;;;13.43;8.73;;;;;;;3.13;85.04;100257.88;5031207;28;20034;-80
2021/03/23 05:54:21;;;;;;;9.27;6.63;;;;;;;2.96;86.40;100264.44;5047285;28;20498;-77
2021/03/23 05:56:53;;;;;;;11.13;6.85;;;;;;;2.65;86.00;100210.59;5051599;28;20402;-78
2021/03/23 05:59:34;;;;;;;8.60;5.30;;;;;;;2.95;85.92;100261.78;5051771;28;20029;-78
2021/03/23 06:02:18;;;;;;;6.57;4.35;;;;;;;2.94;85.34;100254.91;5049900;28;20043;-78
2021/03/23 06:04:59;;;;;;;6.18;3.95;;;;;;;2.88;86.78;100261.41;5050912;28;20514;-78
2021/03/23 06:07:25;;;;;;;11.00;4.77;;;;;;;2.77;86.98;100241.97;5051985;28;20025;-77
2021/03/23 06:09:51;;;;;;;6.18;4.75;;;;;;;2.69;84.54;100251.69;5052186;28;20032;-77
2021/03/23 06:12:42;;;;;;;6.30;3.80;;;;;;;2.83;84.30;100261.88;5051621;28;20032;-77
2021/03/23 06:15:17;;;;;;;6.37;4.03;;;;;;;2.88;85.26;100269.03;5029548;28;20099;-78
2021/03/23 06:18:06;;;;;;;6.43;4.30;;;;;;;2.96;85.90;100266.97;5029417;28;20029;-77
2021/03/23 06:20:43;;;;;;;6.90;4.40;;;;;;;2.92;84.61;100259.94;5029129;28;20045;-77
2021/03/23 06:23:30;;;;;;;122.13;42.13;;;;;;;2.80;85.04;100260.00;5029678;28;20069;-77
2021/03/23 06:26:14;;;;;;;24.63;13.43;;;;;;;2.73;85.95;100252.78;5013045;28;20037;-77
2021/03/23 06:29:10;;;;;;;12.73;8.73;;;;;;;2.65;84.21;100241.19;5028418;28;20076;-77
2021/03/23 06:31:44;;;;;;;8.83;5.80;;;;;;;2.70;85.31;100255.09;4954146;28;20129;-77
2021/03/23 06:34:16;;;;;;;12.07;7.37;;;;;;;2.71;85.80;100237.34;4970792;28;20038;-77
2021/03/23 06:36:42;;;;;;;16.63;9.17;;;;;;;2.77;85.79;100257.28;4954356;28;20117;-76
2021/03/23 06:39:08;;;;;;;17.27;9.80;;;;;;;2.67;85.30;100227.75;4970512;28;20162;-77
2021/03/23 06:41:35;;;;;;;17.20;11.30;;;;;;;2.88;86.97;100248.66;4969991;28;20038;-78
2021/03/23 06:44:12;;;;;;;11.03;7.90;;;;;;;2.23;85.75;100131.47;4970663;28;20452;-77
2021/03/23 06:46:44;;;;;;;12.00;8.90;;;;;;;2.91;85.03;100232.66;4970997;28;20598;-77
2021/03/23 06:49:15;;;;;;;13.63;8.77;;;;;;;2.72;83.21;100198.34;4970593;28;20098;-77
2021/03/23 06:52:02;;;;;;;14.33;10.23;;;;;;;2.98;85.02;100244.13;4980240;28;20057;-77
2021/03/23 06:54:38;;;;;;;15.40;10.27;;;;;;;2.93;81.99;100231.09;5009549;28;20478;-77
2021/03/23 06:57:12;;;;;;;12.73;9.80;;;;;;;2.89;82.60;100234.22;5009354;28;20534;-77
2021/03/23 07:00:00;;;;;;;15.00;10.87;;;;;;;2.88;82.70;100235.03;5009362;28;20034;-77
2021/03/23 07:02:55;;;;;;;14.93;9.80;;;;;;;2.77;80.73;100251.28;4992355;28;20053;-78
2021/03/23 07:05:35;;;;;;;14.50;9.93;;;;;;;2.71;81.23;100239.91;4951139;29;20040;-77
2021/03/23 07:08:10;;;;;;;14.77;9.90;;;;;;;2.70;81.12;100240.69;4965825;28;20049;-77
2021/03/23 07:10:41;;;;;;;14.27;10.13;;;;;;;2.74;82.54;100252.88;4989217;28;20050;-78
2021/03/23 07:13:26;;;;;;;17.33;9.87;;;;;;;2.78;81.99;100248.84;4989702;28;20030;-78
2021/03/23 07:15:59;;;;;;;17.23;12.77;;;;;;;2.74;81.12;100242.66;4989526;28;20038;-76
2021/03/23 07:18:27;;;;;;;16.10;11.30;;;;;;;2.76;81.00;100240.22;4973417;28;20548;-77
2021/03/23 07:20:58;;;;;;;15.50;10.35;;;;;;;2.70;81.21;100199.91;4989707;28;20034;-78
2021/03/23 07:23:26;;;;;;;16.43;10.30;;;;;;;3.01;79.60;100246.88;4989568;28;20137;-77
2021/03/23 07:25:53;;;;;;;17.30;11.50;;;;;;;3.01;78.94;100236.69;4973541;28;20076;-77
2021/03/23 07:28:31;;;;;;;20.20;12.53;;;;;;;3.08;78.73;100249.91;4973035;28;20058;-77
2021/03/23 07:31:32;;;;;;;14.17;9.73;;;;;;;3.09;78.97;100245.72;4972980;28;20041;-77
2021/03/23 07:34:19;;;;;;;20.83;14.93;;;;;;;3.14;80.12;100249.44;4954013;28;20030;-77
2021/03/23 07:37:17;;;;;;;14.83;9.77;;;;;;;3.14;78.25;100241.78;4970226;28;20035;-78
2021/03/23 07:39:49;;;;;;;22.63;14.47;;;;;;;3.15;77.90;100252.84;4913011;29;20032;-77
2021/03/23 07:42:27;;;;;;;14.55;10.77;;;;;;;3.20;78.29;100249.81;4926808;29;20044;-77
2021/03/23 07:44:57;;;;;;;20.57;13.87;;;;;;;3.14;78.28;100248.53;4935316;29;20130;-77
2021/03/23 07:47:32;;;;;;;17.38;11.88;;;;;;;3.19;76.84;100252.25;4935117;29;20071;-78
2021/03/23 07:50:13;;;;;;;18.63;11.67;;;;;;;3.20;76.12;100254.03;4919178;29;20046;-77
2021/03/23 07:52:49;;;;;;;18.27;11.00;;;;;;;3.28;76.48;100262.16;4935260;29;20067;-77
2021/03/23 07:55:24;;;;;;;23.60;13.60;;;;;;;3.33;77.51;100254.00;4935359;29;20036;-77
2021/03/23 07:58:02;;;;;;;17.23;10.70;;;;;;;3.34;76.04;100244.66;4932361;29;20052;-77
2021/03/23 08:00:33;;;;;;;18.00;11.18;;;;;;;3.46;76.46;100245.44;4918701;29;20023;-77
2021/03/23 08:03:01;;;;;;;21.25;12.77;;;;;;;3.45;75.32;100253.00;4934644;29;20059;-77
2021/03/23 08:05:47;;;;;;;31.83;15.98;;;;;;;3.20;74.56;100197.91;4935423;29;20047;-77
2021/03/23 08:08:24;;;;;;;40.10;20.65;;;;;;;3.52;73.45;100257.69;4934465;29;20538;-77
2021/03/23 08:11:14;;;;;;;27.90;18.42;;;;;;;3.38;72.24;100236.44;4973419;28;20094;-77
2021/03/23 08:13:39;;;;;;;19.55;13.70;;;;;;;3.54;73.80;100251.03;4957171;28;20023;-78
2021/03/23 08:16:28;;;;;;;33.80;20.10;;;;;;;3.70;75.25;100246.06;5002981;28;20091;-77
2021/03/23 08:19:13;;;;;;;21.08;12.52;;;;;;;3.79;73.56;100244.84;5054072;28;20025;-76
2021/03/23 08:21:54;;;;;;;17.42;10.93;;;;;;;4.01;74.68;100249.56;5054103;28;20037;-77
2021/03/23 08:24:25;;;;;;;25.75;14.55;;;;;;;3.86;71.69;100216.34;5054082;28;20036;-76
2021/03/23 08:26:51;;;;;;;24.10;14.43;;;;;;;4.08;71.33;100238.06;5054085;28;20029;-77
2021/03/23 08:29:53;;;;;;;22.98;13.98;;;;;;;4.25;70.30;100232.28;5053909;28;20060;-77
2021/03/23 08:32:39;;;;;;;18.83;12.70;;;;;;;4.55;71.25;100234.84;5052274;28;20033;-77
2021/03/23 08:35:33;;;;;;;14.43;9.82;;;;;;;4.45;71.81;100160.94;5051655;28;20090;-77
2021/03/23 08:38:19;;;;;;;13.35;9.30;;;;;;;4.84;68.93;100226.25;4992154;28;20034;-78
2021/03/23 08:40:44;;;;;;;16.52;11.10;;;;;;;4.89;69.26;100226.50;4992176;28;20046;-78
2021/03/23 08:43:15;;;;;;;16.85;10.27;;;;;;;4.57;68.51;100165.88;4992020;28;20038;-78
2021/03/23 08:45:54;;;;;;;53.33;19.63;;;;;;;5.08;71.40;100227.53;4992216;28;20089;-78
2021/03/23 08:48:34;;;;;;;49.80;22.38;;;;;;;5.03;68.53;100217.03;4992250;28;20128;-78
2021/03/23 08:51:06;;;;;;;23.33;15.68;;;;;;;5.15;70.38;100210.03;4991917;28;20042;-78
2021/03/23 08:53:32;;;;;;;22.00;15.45;;;;;;;5.32;69.70;100226.31;4991579;28;20255;-78
2021/03/23 08:55:58;;;;;;;13.95;9.80;;;;;;;5.20;65.81;100217.97;4991845;28;20489;-78
2021/03/23 08:58:56;;;;;;;14.48;9.48;;;;;;;5.05;67.32;100219.66;4991849;28;20092;-78
2021/03/23 09:01:54;;;;;;;15.05;8.45;;;;;;;4.85;68.09;100219.47;4991357;28;20104;-76
2021/03/23 09:04:25;;;;;;;21.73;12.82;;;;;;;4.87;67.77;100212.72;4952860;29;20477;-77
2021/03/23 09:07:01;;;;;;;20.02;11.55;;;;;;;4.91;66.70;100214.69;4953225;29;20070;-77
2021/03/23 09:09:26;;;;;;;11.35;7.57;;;;;;;4.96;66.74;100209.81;4933459;29;20040;-77
2021/03/23 09:11:53;;;;;;;13.13;8.77;;;;;;;5.14;69.88;100213.38;4933808;29;20380;-77
2021/03/23 09:14:23;;;;;;;12.02;7.65;;;;;;;4.73;65.00;100147.16;4937036;29;20485;-77
2021/03/23 09:16:57;;;;;;;10.05;7.22;;;;;;;5.32;67.04;100205.84;4952937;28;20049;-77
2021/03/23 09:19:40;;;;;;;11.48;7.18;;;;;;;5.64;66.90;100210.88;4968928;28;20134;-77
2021/03/23 09:22:10;;;;;;;14.18;9.52;;;;;;;5.90;63.75;100207.13;4952734;28;20035;-78
2021/03/23 09:24:36;;;;;;;;;;;;;;;6.12;64.00;100187.75;4953197;29;20043;-77
2021/03/23 09:27:13;;;;;;;10.10;6.32;;;;;;;6.09;63.03;100196.19;4952640;28;19914;-79
2021/03/23 09:29:44;;;;;;;9.57;6.55;;;;;;;6.06;62.97;100146.44;4952363;29;20051;-78
2021/03/23 09:32:14;;;;;;;8.75;6.47;;;;;;;6.41;61.88;100190.88;4936260;29;20031;-80
2021/03/23 09:35:15;;;;;;;10.70;6.32;;;;;;;6.23;59.79;100181.47;4968541;28;20039;-79
2021/03/23 09:38:19;;;;;;;12.52;8.25;;;;;;;6.07;62.01;100174.72;4936432;29;20031;-78
2021/03/23 09:40:57;;;;;;;19.35;11.32;;;;;;;6.07;62.73;100164.47;4954299;28;20050;-79
2021/03/23 09:43:42;;;;;;;12.73;9.23;;;;;;;6.68;61.05;100181.09;4955545;28;20039;-79
2021/03/23 09:46:33;;;;;;;16.17;10.38;;;;;;;6.65;60.11;100178.34;4971538;28;20070;-79
2021/03/23 09:49:17;;;;;;;9.23;6.82;;;;;;;5.97;57.70;100181.00;4971378;28;20035;-78
2021/03/23 09:51:57;;;;;;;10.65;6.72;;;;;;;5.87;59.04;100173.66;4971601;28;20057;-78
2021/03/23 09:54:30;;;;;;;18.42;10.18;;;;;;;5.86;60.46;100179.59;4971643;28;20027;-79
2021/03/23 09:57:02;;;;;;;24.23;12.80;;;;;;;6.11;59.54;100171.47;4971417;28;20043;-75
2021/03/23 09:59:31;;;;;;;10.75;5.78;;;;;;;6.22;56.91;100181.38;4938647;28;20107;-76
2021/03/23 10:02:01;;;;;;;7.95;5.15;;;;;;;6.06;57.73;100183.19;4954656;28;20062;-75
2021/03/23 10:04:38;;;;;;;8.30;5.53;;;;;;;5.81;57.06;100196.41;4971266;28;20524;-76
2021/03/23 10:07:24;;;;;;;9.55;5.35;;;;;;;5.61;58.13;100196.25;4969140;28;20034;-74
2021/03/23 10:09:50;;;;;;;7.22;5.25;;;;;;;5.95;58.94;100190.28;4966717;28;20035;-75
2021/03/23 10:12:30;;;;;;;9.32;5.68;;;;;;;5.77;56.25;100156.94;4962442;28;20043;-75
2021/03/23 10:14:56;;;;;;;9.77;6.60;;;;;;;6.09;57.84;100185.94;4969164;28;20043;-75
2021/03/23 10:17:25;;;;;;;10.77;7.50;;;;;;;6.41;59.52;100176.38;4999905;28;20426;-74
2021/03/23 10:20:14;;;;;;;8.30;5.53;;;;;;;6.70;53.98;100188.84;5029501;28;20154;-75
2021/03/23 10:22:41;;;;;;;10.88;5.15;;;;;;;6.75;54.01;100182.25;5029822;28;20080;-74
2021/03/23 10:25:16;;;;;;;31.00;13.20;;;;;;;6.89;54.13;100177.75;5029790;28;20043;-74
2021/03/23 10:27:41;;;;;;;7.03;4.05;;;;;;;6.93;55.29;100172.84;5012915;28;20128;-75
2021/03/23 10:30:28;;;;;;;9.40;5.03;;;;;;;7.11;52.99;100171.94;5029253;28;20559;-75
2021/03/23 10:32:58;;;;;;;8.32;3.42;;;;;;;7.20;55.65;100177.53;5029547;28;20037;-75
2021/03/23 10:35:55;;;;;;;7.18;3.97;;;;;;;7.34;54.23;100182.38;5029441;28;20136;-75
2021/03/23 10:38:26;;;;;;;7.55;3.70;;;;;;;7.20;51.30;100176.63;4990172;28;20043;-74
2021/03/23 10:40:54;;;;;;;7.05;3.30;;;;;;;7.18;51.87;100176.56;4994632;28;20043;-75
2021/03/23 10:43:37;;;;;;;5.68;2.92;;;;;;;7.05;51.48;100170.00;4987719;28;20050;-78
2021/03/23 10:46:24;;;;;;;12.18;6.07;;;;;;;7.38;54.14;100179.16;4989325;28;20069;-74
2021/03/23 10:48:49;;;;;;;14.25;8.02;;;;;;;7.23;52.90;100169.94;4990263;28;20050;-75
2021/03/23 10:51:25;;;;;;;6.75;4.45;;;;;;;7.13;51.15;100178.91;4984388;28;20589;-77
2021/03/23 10:54:06;;;;;;;26.98;13.77;;;;;;;7.24;54.75;100164.00;5009679;28;20121;-75
2021/03/23 10:56:36;;;;;;;6.07;3.20;;;;;;;6.90;50.38;100121.41;5009675;28;20048;-74
2021/03/23 10:59:16;;;;;;;7.78;4.07;;;;;;;7.56;52.96;100174.84;4992086;28;20043;-75
2021/03/23 11:02:05;;;;;;;7.43;4.68;;;;;;;7.80;52.05;100173.25;5009298;28;20042;-75
2021/03/23 11:04:33;;;;;;;8.45;4.70;;;;;;;7.35;51.96;100179.91;4993295;28;20066;-76
2021/03/23 11:07:22;;;;;;;6.97;3.70;;;;;;;6.99;51.18;100171.38;5009155;28;20109;-77
2021/03/23 11:09:51;;;;;;;8.65;4.20;;;;;;;7.04;52.08;100181.06;5009440;28;20557;-76
2021/03/23 11:12:16;;;;;;;6.90;3.88;;;;;;;7.13;49.59;100162.63;4976548;28;20034;-76
2021/03/23 11:14:42;;;;;;;8.48;5.22;;;;;;;7.38;48.94;100181.72;5020619;28;20033;-76
2021/03/23 11:17:16;;;;;;;5.70;3.45;;;;;;;7.56;48.85;100167.16;5033900;28;20029;-76
2021/03/23 11:19:44;;;;;;;6.97;3.90;;;;;;;7.77;49.75;100189.44;5035407;28;20056;-76
2021/03/23 11:22:12;;;;;;;8.77;5.80;;;;;;;7.92;47.16;100150.66;5035230;28;20103;-76
2021/03/23 11:24:38;;;;;;;6.45;2.63;;;;;;;7.83;47.95;100169.16;5035309;28;20080;-80
2021/03/23 11:27:04;;;;;;;4.70;2.95;;;;;;;7.33;46.07;100067.63;5035080;28;20040;-75
2021/03/23 11:29:30;;;;;;;5.43;3.80;;;;;;;7.96;47.54;100170.53;5034641;28;20049;-76
2021/03/23 11:31:55;;;;;;;4.28;2.38;;;;;;;7.85;46.98;100169.19;5035206;28;20051;-75
2021/03/23 11:34:22;;;;;;;4.20;2.70;;;;;;;7.94;44.16;100160.19;5034857;28;20029;-76
2021/03/23 11:36:48;;;;;;;4.57;2.38;;;;;;;7.86;47.91;100153.88;5033695;28;20033;-73
2021/03/23 11:39:17;;;;;;;6.40;3.22;;;;;;;8.17;47.40;100156.84;5034862;28;20434;-75
2021/03/23 11:41:53;;;;;;;8.70;5.20;;;;;;;7.97;47.68;100095.19;5033110;28;20041;-75
2021/03/23 11:44:21;;;;;;;6.28;3.45;;;;;;;8.17;46.17;100149.13;5034976;28;20083;-76
2021/03/23 11:47:12;;;;;;;9.15;5.00;;;;;;;7.96;46.56;100159.38;5033650;28;20029;-76
2021/03/23 11:50:05;;;;;;;16.65;6.38;;;;;;;7.45;46.51;100160.63;5034689;28;20061;-76